Terminal Aerodrome Forecast
Issued by NWS Burlington, VT

Home | Current Version | Previous Version | Text Only | Print | Product List | Glossary On
Versions: 1 2 3 4 5 6 7 8 9 10 11 12 13 14 15 16 17 18 19
579
FTUS41 KBTV 270401 AAC
TAFBTV
TAF AMD
KBTV 270401Z 2704/2724 18008KT P6SM VCSH BKN080
      TEMPO 2704/2706 4SM SHRA BKN030
     FM270600 17004KT P6SM SCT080
     FM271700 23007KT 4SM SHRA BR BKN070
     FM272000 23007KT P6SM VCSH BKN090
     FM272300 22005KT P6SM SCT080=

USA.gov is the U.S. government's official web portal to all federal, state and local government web resources and services.